createdAt,value
2019-01-31T00:02:45.312Z,99104.34
2019-01-31T00:05:35.552Z,99107.33
2019-01-31T00:08:28.928Z,99106.44
2019-01-31T00:11:05.347Z,99106.93
2019-01-31T00:14:08.888Z,99105.78
2019-01-31T00:17:00.261Z,99104.23
2019-01-31T00:19:36.535Z,99106.48
2019-01-31T00:22:14.519Z,99109.77
2019-01-31T00:24:46.952Z,99111.45
2019-01-31T00:27:28.107Z,99119.19
2019-01-31T00:30:00.641Z,99114.89
2019-01-31T00:32:49.926Z,99118.08
2019-01-31T00:35:22.429Z,99124.98
2019-01-31T00:38:09.771Z,99123.48
2019-01-31T00:40:46.095Z,99125.16
2019-01-31T00:43:34.594Z,99127.40
2019-01-31T00:46:23.414Z,99127.24
2019-01-31T00:49:16.815Z,99132.16
2019-01-31T00:52:05.385Z,99136.19
2019-01-31T00:54:40.756Z,99134.76
2019-01-31T00:57:26.093Z,99138.84
2019-01-31T01:00:04.061Z,99148.21
2019-01-31T01:02:36.561Z,99144.95
2019-01-31T01:05:37.845Z,99145.23
2019-01-31T01:08:24.318Z,99140.96
2019-01-31T01:11:08.775Z,99147.52
2019-01-31T01:13:58.745Z,99148.41
2019-01-31T01:16:37.673Z,99146.69
2019-01-31T01:19:19.738Z,99146.58
2019-01-31T01:22:07.581Z,99149.25
2019-01-31T01:24:44.028Z,99156.05
2019-01-31T01:27:23.006Z,99160.84
2019-01-31T01:30:09.444Z,99155.45
2019-01-31T01:32:41.924Z,99157.79
2019-01-31T01:35:33.342Z,99152.38
2019-01-31T01:38:15.687Z,99155.70
2019-01-31T01:41:09.459Z,99152.48
2019-01-31T01:43:53.489Z,99160.30
2019-01-31T01:46:43.658Z,99158.42
2019-01-31T01:49:28.896Z,99158.53
2019-01-31T01:52:32.887Z,99165.09
2019-01-31T01:55:05.294Z,99165.36
2019-01-31T01:57:49.576Z,99167.52
2019-01-31T02:00:39.710Z,99171.13
2019-01-31T02:03:16.152Z,99168.73
2019-01-31T02:05:55.523Z,99168.16
2019-01-31T02:08:48.734Z,99174.16
2019-01-31T02:11:32.975Z,99170.64
2019-01-31T02:14:30.363Z,99172.48
2019-01-31T02:17:19.261Z,99170.45
2019-01-31T02:19:58.490Z,99171.36
2019-01-31T02:22:46.572Z,99178.08
2019-01-31T02:25:21.549Z,99178.89
2019-01-31T02:28:09.853Z,99173.08
2019-01-31T02:30:45.128Z,99164.63
2019-01-31T02:33:18.508Z,99163.18
2019-01-31T02:35:59.759Z,99163.39
2019-01-31T02:38:50.280Z,99160.56
2019-01-31T02:41:35.877Z,99161.98
2019-01-31T02:44:20.061Z,99160.34
2019-01-31T02:46:58.466Z,99159.64
2019-01-31T02:49:39.809Z,99159.83
2019-01-31T02:52:24.575Z,99155.44
2019-01-31T02:55:03.885Z,99153.42
2019-01-31T02:57:47.372Z,99151.33
2019-01-31T03:00:43.774Z,99144.11
2019-01-31T03:03:31.535Z,99156.31
2019-01-31T03:06:06.797Z,99150.22
2019-01-31T03:08:44.852Z,99145.07
2019-01-31T03:11:19.989Z,99148.64
2019-01-31T03:13:52.423Z,99142.80
2019-01-31T03:16:31.606Z,99145.86
2019-01-31T03:19:12.873Z,99142.69
2019-01-31T03:21:53.934Z,99141.16
2019-01-31T03:24:43.984Z,99141.84
2019-01-31T03:27:37.454Z,99144.54
2019-01-31T03:30:26.205Z,99150.47
2019-01-31T03:32:58.650Z,99146.18
2019-01-31T03:35:31.081Z,99142.95
2019-01-31T03:38:08.415Z,99134.21
2019-01-31T03:40:43.844Z,99136.23
2019-01-31T03:43:32.193Z,99137.24
2019-01-31T03:46:31.113Z,99137.50
2019-01-31T03:49:06.995Z,99137.91
2019-01-31T03:51:49.038Z,99140.07
2019-01-31T03:54:42.970Z,99138.92
2019-01-31T03:57:20.977Z,99135.75
2019-01-31T03:59:53.452Z,99135.48
2019-01-31T04:02:31.870Z,99128.85
2019-01-31T04:05:16.189Z,99134.56
2019-01-31T04:07:45.417Z,99130.98
2019-01-31T04:10:19.052Z,99132.69
2019-01-31T04:12:47.544Z,99127.77
2019-01-31T04:15:16.840Z,99131.57
2019-01-31T04:17:46.093Z,99138.30
2019-01-31T04:20:15.336Z,99144.42
2019-01-31T04:22:45.629Z,99146.06
2019-01-31T04:25:14.851Z,99146.63
2019-01-31T04:27:44.100Z,99145.06
2019-01-31T04:30:15.191Z,99148.56
2019-01-31T04:32:44.459Z,99152.55
2019-01-31T04:35:13.775Z,99139.30
2019-01-31T04:37:43.111Z,99140.50
2019-01-31T04:40:12.360Z,99142.00
2019-01-31T04:42:41.620Z,99142.09
2019-01-31T04:45:11.311Z,99146.91
2019-01-31T04:47:41.658Z,99147.34
2019-01-31T04:50:13.430Z,99145.14
2019-01-31T04:52:43.192Z,99148.14
2019-01-31T04:55:12.542Z,99141.98
2019-01-31T04:57:42.881Z,99142.40
2019-01-31T05:00:15.558Z,99140.33
2019-01-31T05:02:44.805Z,99149.73
2019-01-31T05:05:15.138Z,99147.64
2019-01-31T05:07:44.501Z,99144.66
2019-01-31T05:10:14.127Z,99149.28
2019-01-31T05:12:43.579Z,99149.48
2019-01-31T05:15:14.171Z,99154.00
2019-01-31T05:17:43.527Z,99148.93
2019-01-31T05:20:17.628Z,99153.85
2019-01-31T05:22:46.941Z,99149.05
2019-01-31T05:25:16.345Z,99149.05
2019-01-31T05:27:45.581Z,99145.20
2019-01-31T05:30:18.547Z,99148.16
2019-01-31T05:32:47.931Z,99148.40
2019-01-31T05:35:17.163Z,99142.72
2019-01-31T05:37:46.518Z,99144.98
2019-01-31T05:40:16.746Z,99145.05
2019-01-31T05:42:45.952Z,99144.83
2019-01-31T05:45:15.927Z,99149.91
2019-01-31T05:47:45.178Z,99145.97
2019-01-31T05:50:16.276Z,99150.64
2019-01-31T05:52:45.601Z,99151.24
2019-01-31T05:55:15.100Z,99150.67
2019-01-31T05:57:44.339Z,99148.14
2019-01-31T06:00:21.658Z,99153.63
2019-01-31T06:02:50.958Z,99161.30
2019-01-31T06:05:22.747Z,99169.91
2019-01-31T06:07:52.312Z,99163.84
2019-01-31T06:10:21.532Z,99166.00
2019-01-31T06:12:50.822Z,99170.91
2019-01-31T06:15:20.123Z,99178.16
2019-01-31T06:17:49.381Z,99174.28
2019-01-31T06:20:24.847Z,99175.34
2019-01-31T06:22:54.162Z,99175.78
2019-01-31T06:25:23.399Z,99180.34
2019-01-31T06:27:52.685Z,99176.62
2019-01-31T06:30:21.907Z,99171.27
2019-01-31T06:32:51.150Z,99170.75
2019-01-31T06:35:20.512Z,99168.17
2019-01-31T06:37:49.731Z,99167.34
2019-01-31T06:40:20.719Z,99169.00
2019-01-31T06:42:50.100Z,99166.58
2019-01-31T06:45:21.177Z,99171.23
2019-01-31T06:47:50.511Z,99174.62
2019-01-31T06:50:19.757Z,99176.53
2019-01-31T06:52:49.019Z,99179.77
2019-01-31T06:55:18.325Z,99183.58
2019-01-31T06:57:47.582Z,99190.48
2019-01-31T07:00:22.062Z,99188.81
2019-01-31T07:02:51.580Z,99195.01
2019-01-31T07:05:20.880Z,99193.37
2019-01-31T07:07:50.130Z,99193.23
2019-01-31T07:10:24.926Z,99195.44
2019-01-31T07:12:56.078Z,99196.16
2019-01-31T07:15:26.288Z,99194.98
2019-01-31T07:17:57.534Z,99202.11
2019-01-31T07:20:26.765Z,99199.11
2019-01-31T07:22:55.995Z,99200.23
2019-01-31T07:25:25.603Z,99213.55
2019-01-31T07:27:54.886Z,99217.59
2019-01-31T07:30:26.753Z,99213.98
2019-01-31T07:32:55.413Z,99212.11
2019-01-31T07:35:25.626Z,99211.86
2019-01-31T07:37:54.832Z,99213.76
2019-01-31T07:40:24.065Z,99220.59
2019-01-31T07:42:53.300Z,99221.78
2019-01-31T07:45:30.979Z,99224.88
2019-01-31T07:48:00.265Z,99228.11
2019-01-31T07:50:29.496Z,99224.94
2019-01-31T07:52:58.730Z,99224.26
2019-01-31T07:55:27.977Z,99221.30
2019-01-31T07:57:57.196Z,99218.36
2019-01-31T08:00:26.626Z,99219.27
2019-01-31T08:02:55.857Z,99220.59
2019-01-31T08:05:25.674Z,99233.22
2019-01-31T08:07:56.661Z,99233.91
2019-01-31T08:10:32.411Z,99227.74
2019-01-31T08:13:02.617Z,99228.33
2019-01-31T08:15:31.940Z,99230.36
2019-01-31T08:18:01.180Z,99227.11
2019-01-31T08:20:30.402Z,99229.45
2019-01-31T08:23:00.275Z,99231.30
2019-01-31T08:25:29.622Z,99233.66
2019-01-31T08:27:58.919Z,99228.72
2019-01-31T08:30:39.834Z,99230.98
2019-01-31T08:33:09.985Z,99235.17
2019-01-31T08:35:39.292Z,99232.82
2019-01-31T08:38:09.539Z,99233.10
2019-01-31T08:40:39.799Z,99233.72
2019-01-31T08:43:09.037Z,99230.89
2019-01-31T08:45:38.274Z,99238.09
2019-01-31T08:48:07.665Z,99243.42
2019-01-31T08:50:36.926Z,99244.23
2019-01-31T08:53:06.163Z,99236.77
2019-01-31T08:55:35.394Z,99233.48
2019-01-31T08:58:04.825Z,99240.64
2019-01-31T09:00:34.079Z,99243.53
2019-01-31T09:03:03.387Z,99239.06
2019-01-31T09:05:32.706Z,99247.91
2019-01-31T09:08:03.875Z,99243.23
2019-01-31T09:10:39.366Z,99246.28
2019-01-31T09:13:10.144Z,99247.33
2019-01-31T09:15:45.240Z,99248.73
2019-01-31T09:18:14.506Z,99243.23
2019-01-31T09:20:56.622Z,99238.95
2019-01-31T09:23:34.635Z,99234.34
2019-01-31T09:26:39.831Z,99235.75
2019-01-31T09:29:26.936Z,99231.66
2019-01-31T09:32:15.615Z,99234.21
2019-01-31T09:35:06.893Z,99227.16
2019-01-31T09:38:05.681Z,99233.66
2019-01-31T09:40:55.480Z,99225.14
2019-01-31T09:43:48.528Z,99229.61
2019-01-31T09:46:30.180Z,99225.80
2019-01-31T09:49:02.589Z,99228.39
2019-01-31T09:51:55.710Z,99225.94
2019-01-31T09:54:29.013Z,99226.97
2019-01-31T09:57:17.378Z,99219.19
2019-01-31T10:00:01.424Z,99224.52
2019-01-31T10:03:03.204Z,99224.77
2019-01-31T10:05:58.298Z,99218.84
2019-01-31T10:08:48.552Z,99222.80
2019-01-31T10:11:36.469Z,99225.05
2019-01-31T10:14:12.683Z,99224.47
2019-01-31T10:16:46.915Z,99221.17
2019-01-31T10:19:32.922Z,99221.88
2019-01-31T10:22:08.433Z,99221.73
2019-01-31T10:24:56.600Z,99228.34
2019-01-31T10:27:40.804Z,99229.63
2019-01-31T10:30:22.823Z,99232.33
2019-01-31T10:33:14.480Z,99234.48
2019-01-31T10:35:46.889Z,99231.61
2019-01-31T10:38:36.945Z,99223.73
2019-01-31T10:41:40.690Z,99225.44
2019-01-31T10:44:38.155Z,99221.99
2019-01-31T10:47:19.073Z,99222.46
2019-01-31T10:50:03.243Z,99213.94
2019-01-31T10:52:50.610Z,99217.59
2019-01-31T10:55:28.923Z,99210.19
2019-01-31T10:58:26.234Z,99208.94
2019-01-31T11:01:04.449Z,99202.70
2019-01-31T11:03:42.460Z,99202.44
2019-01-31T11:06:21.466Z,99186.61
2019-01-31T11:09:22.455Z,99187.17
2019-01-31T11:12:26.199Z,99186.00
2019-01-31T11:15:21.429Z,99182.91
2019-01-31T11:18:05.569Z,99184.18
2019-01-31T11:20:40.723Z,99181.69
2019-01-31T11:23:13.131Z,99174.27
2019-01-31T11:26:10.993Z,99171.83
2019-01-31T11:28:43.410Z,99180.06
2019-01-31T11:31:43.954Z,99169.00
2019-01-31T11:34:34.429Z,99169.36
2019-01-31T11:37:09.340Z,99169.56
2019-01-31T11:39:56.581Z,99165.02
2019-01-31T11:42:31.592Z,99164.33
2019-01-31T11:45:21.834Z,99159.49
2019-01-31T11:48:14.859Z,99161.03
2019-01-31T11:51:19.835Z,99157.87
2019-01-31T11:54:00.984Z,99157.89
2019-01-31T11:57:05.337Z,99151.75
2019-01-31T11:59:28.379Z,99154.72
2019-01-31T12:01:57.635Z,99155.42
2019-01-31T12:04:26.886Z,99146.34
2019-01-31T12:06:56.118Z,99150.89
2019-01-31T12:09:25.387Z,99145.69
2019-01-31T12:11:54.668Z,99143.14
2019-01-31T12:14:23.988Z,99146.67
2019-01-31T12:16:53.354Z,99142.83
2019-01-31T12:19:22.686Z,99145.25
2019-01-31T12:21:52.935Z,99137.98
2019-01-31T12:24:22.179Z,99139.52
2019-01-31T12:26:51.412Z,99137.67
2019-01-31T12:29:20.669Z,99145.70
2019-01-31T12:31:49.918Z,99141.85
2019-01-31T12:34:19.159Z,99139.93
2019-01-31T12:36:48.399Z,99136.75
2019-01-31T12:39:17.666Z,99139.64
2019-01-31T12:41:46.907Z,99129.99
2019-01-31T12:44:16.158Z,99136.27
2019-01-31T12:46:45.469Z,99133.98
2019-01-31T12:49:14.760Z,99132.88
2019-01-31T12:51:45.030Z,99139.05
2019-01-31T12:54:14.280Z,99130.70
2019-01-31T12:56:43.525Z,99128.50
2019-01-31T12:59:12.734Z,99137.33
2019-01-31T13:01:42.136Z,99130.61
2019-01-31T13:04:11.362Z,99125.47
2019-01-31T13:06:40.609Z,99126.38
2019-01-31T13:09:11.291Z,99124.16
2019-01-31T13:11:40.526Z,99115.02
2019-01-31T13:14:09.761Z,99117.83
2019-01-31T13:16:39.029Z,99116.05
2019-01-31T13:19:08.247Z,99115.68
2019-01-31T13:21:37.479Z,99114.58
2019-01-31T13:24:06.879Z,99111.33
2019-01-31T13:26:37.070Z,99116.55
2019-01-31T13:29:06.369Z,99112.34
2019-01-31T13:31:35.596Z,99107.94
2019-01-31T13:34:05.067Z,99112.28
2019-01-31T13:36:34.313Z,99108.55
2019-01-31T13:39:06.823Z,99106.80
2019-01-31T13:41:36.392Z,99100.88
2019-01-31T13:44:05.622Z,99108.78
2019-01-31T13:46:34.870Z,99098.59
2019-01-31T13:49:04.186Z,99102.92
2019-01-31T13:51:33.425Z,99110.33
2019-01-31T13:54:02.666Z,99110.91
2019-01-31T13:56:32.912Z,99112.66
2019-01-31T13:59:02.167Z,99111.09
2019-01-31T14:01:31.402Z,99115.59
2019-01-31T14:04:00.645Z,99125.36
2019-01-31T14:06:30.867Z,99122.61
2019-01-31T14:09:00.109Z,99121.36
2019-01-31T14:11:29.362Z,99117.16
2019-01-31T14:14:08.803Z,99113.91
2019-01-31T14:16:29.535Z,99107.55
2019-01-31T14:18:58.763Z,99103.45
2019-01-31T14:21:28.022Z,99102.36
2019-01-31T14:23:57.263Z,99101.12
2019-01-31T14:26:26.505Z,99098.45
2019-01-31T14:28:57.646Z,99099.84
2019-01-31T14:31:26.930Z,99094.69
2019-01-31T14:33:56.240Z,99095.86
2019-01-31T14:36:26.543Z,99095.02
2019-01-31T14:38:56.716Z,99089.40
2019-01-31T14:41:25.940Z,99095.08
2019-01-31T14:43:56.003Z,99090.00
2019-01-31T14:46:25.301Z,99092.89
2019-01-31T14:48:54.559Z,99085.80
2019-01-31T14:51:23.842Z,99088.69
2019-01-31T14:53:53.089Z,99083.19
2019-01-31T14:56:22.348Z,99083.20
2019-01-31T14:58:51.602Z,99085.61
2019-01-31T15:01:21.830Z,99080.94
2019-01-31T15:03:51.593Z,99087.66
2019-01-31T15:06:21.986Z,99079.59
2019-01-31T15:08:51.230Z,99081.96
2019-01-31T15:11:20.497Z,99091.50
2019-01-31T15:13:49.748Z,99091.80
2019-01-31T15:16:18.994Z,99084.38
2019-01-31T15:18:48.232Z,99085.79
2019-01-31T15:21:18.419Z,99086.17
2019-01-31T15:23:47.670Z,99085.25
2019-01-31T15:26:16.922Z,99094.83
2019-01-31T15:28:48.137Z,99093.70
2019-01-31T15:31:19.304Z,99088.52
2019-01-31T15:33:48.551Z,99085.52
2019-01-31T15:36:18.698Z,99086.02
2019-01-31T15:38:49.979Z,99084.76
2019-01-31T15:41:19.253Z,99081.55
2019-01-31T15:43:48.499Z,99076.08
2019-01-31T15:46:18.081Z,99080.30
2019-01-31T15:48:47.417Z,99075.72
2019-01-31T15:51:16.749Z,99074.00
2019-01-31T15:53:46.972Z,99068.73
2019-01-31T15:56:16.222Z,99065.04
2019-01-31T15:58:45.477Z,99060.14
2019-01-31T16:01:14.763Z,99054.53
2019-01-31T16:03:44.114Z,99053.38
2019-01-31T16:06:13.352Z,99056.91
2019-01-31T16:08:42.611Z,99052.61
2019-01-31T16:11:11.840Z,99053.22
2019-01-31T16:13:41.120Z,99042.43
2019-01-31T16:16:10.361Z,99040.95
2019-01-31T16:18:39.639Z,99043.53
2019-01-31T16:21:10.809Z,99035.90
2019-01-31T16:23:40.080Z,99032.44
2019-01-31T16:26:09.334Z,99030.38
2019-01-31T16:28:38.860Z,99022.18
2019-01-31T16:31:08.110Z,99019.52
2019-01-31T16:33:38.487Z,99015.66
2019-01-31T16:36:07.751Z,99015.57
2019-01-31T16:38:37.004Z,99020.50
2019-01-31T16:41:06.258Z,99016.26
2019-01-31T16:43:37.508Z,99019.11
2019-01-31T16:46:06.829Z,99014.42
2019-01-31T16:48:36.138Z,99018.69
2019-01-31T16:51:06.409Z,99021.27
2019-01-31T16:53:36.653Z,99013.31
2019-01-31T16:56:05.901Z,99010.94
2019-01-31T16:58:37.153Z,99000.72
2019-01-31T17:01:06.540Z,99001.22
2019-01-31T17:03:35.793Z,98993.36
2019-01-31T17:06:06.095Z,98993.61
2019-01-31T17:08:36.269Z,98992.66
2019-01-31T17:11:05.532Z,98986.91
2019-01-31T17:13:35.788Z,98986.97
2019-01-31T17:16:05.108Z,98986.25
2019-01-31T17:18:34.410Z,98983.66
2019-01-31T17:21:03.688Z,98996.21
2019-01-31T17:23:32.940Z,98990.66
2019-01-31T17:26:02.277Z,98991.30
2019-01-31T17:28:31.517Z,98991.20
2019-01-31T17:31:00.796Z,98990.07
2019-01-31T17:33:30.047Z,98988.83
2019-01-31T17:35:59.304Z,98997.81
2019-01-31T17:38:28.542Z,98991.45
2019-01-31T17:40:58.817Z,98987.92
2019-01-31T17:43:28.053Z,98982.13
2019-01-31T17:45:57.476Z,98987.66
2019-01-31T17:48:26.721Z,98985.24
2019-01-31T17:50:55.972Z,98988.13
2019-01-31T17:53:26.256Z,98980.78
2019-01-31T17:55:55.517Z,98980.97
2019-01-31T17:58:24.757Z,98978.28
2019-01-31T18:00:55.647Z,98975.40
2019-01-31T18:03:24.940Z,98975.16
2019-01-31T18:05:54.183Z,98967.84
2019-01-31T18:08:23.433Z,98967.45
2019-01-31T18:10:54.572Z,98963.63
2019-01-31T18:13:23.886Z,98959.94
2019-01-31T18:15:53.130Z,98957.73
2019-01-31T18:18:22.397Z,98958.93
2019-01-31T18:20:53.707Z,98955.14
2019-01-31T18:23:22.975Z,98957.05
2019-01-31T18:25:52.210Z,98951.31
2019-01-31T18:28:21.462Z,98950.03
2019-01-31T18:30:50.722Z,98941.45
2019-01-31T18:33:21.910Z,98943.22
2019-01-31T18:35:51.149Z,98945.70
2019-01-31T18:38:20.403Z,98940.17
2019-01-31T18:40:49.657Z,98940.23
2019-01-31T18:43:19.498Z,98947.91
2019-01-31T18:45:53.399Z,98937.66
2019-01-31T18:48:20.660Z,98941.42
2019-01-31T18:50:49.914Z,98938.19
2019-01-31T18:53:19.185Z,98932.16
2019-01-31T18:55:48.490Z,98933.11
2019-01-31T18:58:17.742Z,98928.52
2019-01-31T19:00:47.434Z,98916.10
2019-01-31T19:03:17.123Z,98917.32
2019-01-31T19:05:46.735Z,98914.61
2019-01-31T19:08:15.972Z,98914.55
2019-01-31T19:10:45.204Z,98916.88
2019-01-31T19:13:14.443Z,98910.09
2019-01-31T19:15:46.265Z,98914.52
2019-01-31T19:18:14.667Z,98909.75
2019-01-31T19:20:43.989Z,98901.92
2019-01-31T19:23:13.367Z,98908.23
2019-01-31T19:25:42.628Z,98911.11
2019-01-31T19:28:13.290Z,98908.48
2019-01-31T19:30:42.815Z,98899.58
2019-01-31T19:33:12.123Z,98900.88
2019-01-31T19:35:41.381Z,98897.73
2019-01-31T19:38:10.694Z,98893.20
2019-01-31T19:40:42.713Z,98886.64
2019-01-31T19:43:12.026Z,98886.36
2019-01-31T19:45:47.055Z,98878.09
2019-01-31T19:48:16.843Z,98871.73
2019-01-31T19:50:46.099Z,98861.24
2019-01-31T19:53:15.577Z,98852.14
2019-01-31T19:55:45.774Z,98857.32
2019-01-31T19:58:16.064Z,98859.45
2019-01-31T20:00:45.300Z,98857.89
2019-01-31T20:03:14.621Z,98867.26
2019-01-31T20:05:43.847Z,98862.46
2019-01-31T20:08:15.121Z,98851.19
2019-01-31T20:10:45.315Z,98857.20
2019-01-31T20:13:15.548Z,98840.81
2019-01-31T20:15:44.835Z,98833.25
2019-01-31T20:18:15.070Z,98837.05
2019-01-31T20:20:44.390Z,98834.02
2019-01-31T20:23:13.627Z,98828.61
2019-01-31T20:25:42.887Z,98822.25
2019-01-31T20:28:12.190Z,98813.94
2019-01-31T20:30:41.432Z,98809.02
2019-01-31T20:33:10.673Z,98801.27
2019-01-31T20:35:39.994Z,98801.93
2019-01-31T20:38:09.326Z,98811.63
2019-01-31T20:40:39.704Z,98804.35
2019-01-31T20:43:10.214Z,98801.18
2019-01-31T20:45:39.534Z,98797.61
2019-01-31T20:48:09.046Z,98797.80
2019-01-31T20:50:39.225Z,98807.38
2019-01-31T20:53:08.543Z,98798.34
2019-01-31T20:55:37.845Z,98794.47
2019-01-31T20:58:07.188Z,98789.53
2019-01-31T21:00:38.928Z,98786.66
2019-01-31T21:03:10.538Z,98780.41
2019-01-31T21:05:40.147Z,98776.95
2019-01-31T21:08:09.836Z,98786.40
2019-01-31T21:10:40.104Z,98773.37
2019-01-31T21:13:09.333Z,98766.83
2019-01-31T21:15:38.649Z,98773.84
2019-01-31T21:18:08.950Z,98772.36
2019-01-31T21:20:38.284Z,98762.89
2019-01-31T21:23:07.889Z,98767.03
2019-01-31T21:25:37.151Z,98766.90
2019-01-31T21:28:06.474Z,98768.75
2019-01-31T21:30:38.148Z,98761.02
2019-01-31T21:33:07.476Z,98754.80
2019-01-31T21:35:36.874Z,98746.45
2019-01-31T21:38:06.187Z,98748.48
2019-01-31T21:40:35.727Z,98730.23
2019-01-31T21:43:05.362Z,98726.30
2019-01-31T21:45:35.620Z,98726.55
2019-01-31T21:48:05.704Z,98721.42
2019-01-31T21:50:36.872Z,98722.75
2019-01-31T21:53:06.441Z,98716.80
2019-01-31T21:55:35.698Z,98711.68
2019-01-31T21:58:05.206Z,98710.30
2019-01-31T22:00:35.488Z,98713.30
2019-01-31T22:03:05.523Z,98702.77
2019-01-31T22:05:34.855Z,98697.70
2019-01-31T22:08:04.510Z,98698.00
2019-01-31T22:10:33.808Z,98691.73
2019-01-31T22:13:05.226Z,98687.58
2019-01-31T22:15:35.624Z,98683.50
2019-01-31T22:18:05.793Z,98686.29
2019-01-31T22:20:35.018Z,98686.80
2019-01-31T22:23:04.554Z,98681.72
2019-01-31T22:25:33.784Z,98683.11
2019-01-31T22:28:03.033Z,98679.51
2019-01-31T22:30:34.432Z,98681.25
2019-01-31T22:33:04.559Z,98677.97
2019-01-31T22:35:33.804Z,98680.45
2019-01-31T22:38:03.047Z,98683.98
2019-01-31T22:40:32.308Z,98678.55
2019-01-31T22:43:01.570Z,98678.91
2019-01-31T22:45:30.812Z,98677.90
2019-01-31T22:48:00.061Z,98665.11
2019-01-31T22:50:29.322Z,98666.69
2019-01-31T22:52:59.541Z,98660.81
2019-01-31T22:55:29.736Z,98657.61
2019-01-31T22:57:59.052Z,98650.61
2019-01-31T23:01:01.169Z,98649.50
2019-01-31T23:03:30.382Z,98648.48
2019-01-31T23:05:59.623Z,98647.09
2019-01-31T23:08:29.834Z,98638.27
2019-01-31T23:10:59.063Z,98639.67
2019-01-31T23:13:28.302Z,98623.70
2019-01-31T23:15:58.582Z,98622.47
2019-01-31T23:18:27.828Z,98609.65
2019-01-31T23:20:57.120Z,98603.20
2019-01-31T23:23:26.372Z,98603.52
2019-01-31T23:25:55.632Z,98608.39
2019-01-31T23:28:24.900Z,98604.42
2019-01-31T23:30:54.139Z,98609.98
2019-01-31T23:33:23.384Z,98597.78
2019-01-31T23:35:52.627Z,98599.83
2019-01-31T23:38:21.879Z,98587.19
2019-01-31T23:40:51.198Z,98583.93
2019-01-31T23:43:20.436Z,98582.61
2019-01-31T23:45:49.677Z,98576.78
2019-01-31T23:48:18.932Z,98568.70
2019-01-31T23:50:49.174Z,98564.91
2019-01-31T23:53:20.402Z,98562.95
2019-01-31T23:55:49.633Z,98554.24
2019-01-31T23:58:19.821Z,98551.22
